sensor_id;sensor_type;location;lat;lon;timestamp;temperature;humidity
1075;DHT22;526;51.392;12.448;2023-05-10T00:01:24;12.00;92.40
1075;DHT22;526;51.392;12.448;2023-05-10T00:03:50;12.00;92.80
1075;DHT22;526;51.392;12.448;2023-05-10T00:06:15;12.00;92.70
1075;DHT22;526;51.392;12.448;2023-05-10T00:08:41;12.00;92.90
1075;DHT22;526;51.392;12.448;2023-05-10T00:11:06;11.90;92.80
1075;DHT22;526;51.392;12.448;2023-05-10T00:13:32;11.90;92.80
1075;DHT22;526;51.392;12.448;2023-05-10T00:15:57;11.90;92.80
1075;DHT22;526;51.392;12.448;2023-05-10T00:18:23;11.90;92.80
1075;DHT22;526;51.392;12.448;2023-05-10T00:20:48;11.90;93.10
1075;DHT22;526;51.392;12.448;2023-05-10T00:23:14;11.80;93.20
1075;DHT22;526;51.392;12.448;2023-05-10T00:25:40;11.80;93.20
1075;DHT22;526;51.392;12.448;2023-05-10T00:28:05;11.80;93.40
1075;DHT22;526;51.392;12.448;2023-05-10T00:30:31;11.70;93.50
1075;DHT22;526;51.392;12.448;2023-05-10T00:32:56;11.70;93.70
1075;DHT22;526;51.392;12.448;2023-05-10T00:35:22;11.70;93.70
1075;DHT22;526;51.392;12.448;2023-05-10T00:37:47;11.60;93.90
1075;DHT22;526;51.392;12.448;2023-05-10T00:40:13;11.60;93.90
1075;DHT22;526;51.392;12.448;2023-05-10T00:42:39;11.60;94.00
1075;DHT22;526;51.392;12.448;2023-05-10T00:45:05;11.60;94.00
1075;DHT22;526;51.392;12.448;2023-05-10T00:47:31;11.60;94.00
1075;DHT22;526;51.392;12.448;2023-05-10T00:49:57;11.60;94.10
1075;DHT22;526;51.392;12.448;2023-05-10T00:52:23;11.50;94.00
1075;DHT22;526;51.392;12.448;2023-05-10T00:54:50;11.60;94.00
1075;DHT22;526;51.392;12.448;2023-05-10T00:57:17;11.60;94.10
1075;DHT22;526;51.392;12.448;2023-05-10T00:59:42;11.60;94.10
1075;DHT22;526;51.392;12.448;2023-05-10T01:02:08;11.50;94.20
1075;DHT22;526;51.392;12.448;2023-05-10T01:04:34;11.50;94.20
1075;DHT22;526;51.392;12.448;2023-05-10T01:07:00;11.50;94.20
1075;DHT22;526;51.392;12.448;2023-05-10T01:09:26;11.50;94.30
1075;DHT22;526;51.392;12.448;2023-05-10T01:11:53;11.50;94.40
1075;DHT22;526;51.392;12.448;2023-05-10T01:14:19;11.50;94.50
1075;DHT22;526;51.392;12.448;2023-05-10T01:16:46;11.40;94.60
1075;DHT22;526;51.392;12.448;2023-05-10T01:19:27;11.40;94.70
1075;DHT22;526;51.392;12.448;2023-05-10T01:31:18;11.30;95.10
1075;DHT22;526;51.392;12.448;2023-05-10T01:33:55;11.20;95.20
1075;DHT22;526;51.392;12.448;2023-05-10T01:39:05;11.20;95.40
1075;DHT22;526;51.392;12.448;2023-05-10T01:41:55;11.20;95.50
1075;DHT22;526;51.392;12.448;2023-05-10T01:44:40;11.20;95.60
1075;DHT22;526;51.392;12.448;2023-05-10T01:47:11;11.10;95.70
1075;DHT22;526;51.392;12.448;2023-05-10T01:49:42;11.10;95.80
1075;DHT22;526;51.392;12.448;2023-05-10T01:52:11;11.10;95.90
1075;DHT22;526;51.392;12.448;2023-05-10T01:54:44;11.00;96.00
1075;DHT22;526;51.392;12.448;2023-05-10T01:57:11;11.00;96.00
1075;DHT22;526;51.392;12.448;2023-05-10T01:59:40;11.00;96.10
1075;DHT22;526;51.392;12.448;2023-05-10T02:02:08;11.00;96.10
1075;DHT22;526;51.392;12.448;2023-05-10T02:04:38;11.00;96.10
1075;DHT22;526;51.392;12.448;2023-05-10T02:07:05;10.90;96.20
1075;DHT22;526;51.392;12.448;2023-05-10T02:09:32;10.90;96.40
1075;DHT22;526;51.392;12.448;2023-05-10T02:12:00;10.90;96.40
1075;DHT22;526;51.392;12.448;2023-05-10T02:14:29;10.90;96.40
1075;DHT22;526;51.392;12.448;2023-05-10T02:16:56;10.90;96.50
1075;DHT22;526;51.392;12.448;2023-05-10T02:19:23;10.80;96.60
1075;DHT22;526;51.392;12.448;2023-05-10T02:21:50;10.80;96.70
1075;DHT22;526;51.392;12.448;2023-05-10T02:24:17;10.80;96.80
1075;DHT22;526;51.392;12.448;2023-05-10T02:26:44;10.70;96.80
1075;DHT22;526;51.392;12.448;2023-05-10T02:29:11;10.70;96.80
1075;DHT22;526;51.392;12.448;2023-05-10T02:31:37;10.70;96.90
1075;DHT22;526;51.392;12.448;2023-05-10T02:34:04;10.70;96.90
1075;DHT22;526;51.392;12.448;2023-05-10T02:36:31;10.70;97.00
1075;DHT22;526;51.392;12.448;2023-05-10T02:38:57;10.70;97.10
1075;DHT22;526;51.392;12.448;2023-05-10T02:41:24;10.60;97.00
1075;DHT22;526;51.392;12.448;2023-05-10T02:43:53;10.60;97.10
1075;DHT22;526;51.392;12.448;2023-05-10T02:46:21;10.60;97.20
1075;DHT22;526;51.392;12.448;2023-05-10T02:48:46;10.50;97.30
1075;DHT22;526;51.392;12.448;2023-05-10T02:51:12;10.50;97.30
1075;DHT22;526;51.392;12.448;2023-05-10T02:53:41;10.50;97.30
1075;DHT22;526;51.392;12.448;2023-05-10T02:56:16;10.50;97.30
1075;DHT22;526;51.392;12.448;2023-05-10T02:58:45;10.50;97.30
1075;DHT22;526;51.392;12.448;2023-05-10T03:01:11;10.50;97.30
1075;DHT22;526;51.392;12.448;2023-05-10T03:03:37;10.40;97.30
1075;DHT22;526;51.392;12.448;2023-05-10T03:06:02;10.40;97.30
1075;DHT22;526;51.392;12.448;2023-05-10T03:08:28;10.40;97.30
1075;DHT22;526;51.392;12.448;2023-05-10T03:11:07;10.40;97.30
1075;DHT22;526;51.392;12.448;2023-05-10T03:16:27;10.40;97.30
1075;DHT22;526;51.392;12.448;2023-05-10T03:19:01;10.40;97.30
1075;DHT22;526;51.392;12.448;2023-05-10T03:21:29;10.30;97.30
1075;DHT22;526;51.392;12.448;2023-05-10T03:24:05;10.30;97.30
1075;DHT22;526;51.392;12.448;2023-05-10T03:26:32;10.30;97.30
1075;DHT22;526;51.392;12.448;2023-05-10T03:28:58;10.30;97.30
1075;DHT22;526;51.392;12.448;2023-05-10T03:31:25;10.30;97.30
1075;DHT22;526;51.392;12.448;2023-05-10T03:33:51;10.30;97.30
1075;DHT22;526;51.392;12.448;2023-05-10T03:36:18;10.30;97.30
1075;DHT22;526;51.392;12.448;2023-05-10T03:38:43;10.30;97.30
1075;DHT22;526;51.392;12.448;2023-05-10T03:41:09;10.30;97.30
1075;DHT22;526;51.392;12.448;2023-05-10T03:43:34;10.20;97.30
1075;DHT22;526;51.392;12.448;2023-05-10T03:46:03;10.20;97.30
1075;DHT22;526;51.392;12.448;2023-05-10T03:48:29;10.20;97.30
1075;DHT22;526;51.392;12.448;2023-05-10T03:50:55;10.20;97.30
1075;DHT22;526;51.392;12.448;2023-05-10T03:53:21;10.20;97.30
1075;DHT22;526;51.392;12.448;2023-05-10T03:55:46;10.30;97.30
1075;DHT22;526;51.392;12.448;2023-05-10T03:58:12;10.30;97.30
1075;DHT22;526;51.392;12.448;2023-05-10T04:00:37;10.30;97.30
1075;DHT22;526;51.392;12.448;2023-05-10T04:03:09;10.40;97.30
1075;DHT22;526;51.392;12.448;2023-05-10T04:05:35;10.40;97.30
1075;DHT22;526;51.392;12.448;2023-05-10T04:08:00;10.40;97.30
1075;DHT22;526;51.392;12.448;2023-05-10T04:10:26;10.40;97.30
1075;DHT22;526;51.392;12.448;2023-05-10T04:12:51;10.40;97.30
1075;DHT22;526;51.392;12.448;2023-05-10T04:15:17;10.50;97.30
1075;DHT22;526;51.392;12.448;2023-05-10T04:17:42;10.50;97.30
1075;DHT22;526;51.392;12.448;2023-05-10T04:20:08;10.50;97.30
1075;DHT22;526;51.392;12.448;2023-05-10T04:22:34;10.60;97.30
1075;DHT22;526;51.392;12.448;2023-05-10T04:24:59;10.60;97.30
1075;DHT22;526;51.392;12.448;2023-05-10T04:27:24;10.60;97.30
1075;DHT22;526;51.392;12.448;2023-05-10T04:29:50;10.70;97.30
1075;DHT22;526;51.392;12.448;2023-05-10T04:32:16;10.70;97.30
1075;DHT22;526;51.392;12.448;2023-05-10T04:34:43;10.70;97.30
1075;DHT22;526;51.392;12.448;2023-05-10T04:37:08;10.80;97.30
1075;DHT22;526;51.392;12.448;2023-05-10T04:39:34;10.80;97.30
1075;DHT22;526;51.392;12.448;2023-05-10T04:42:00;10.90;97.30
1075;DHT22;526;51.392;12.448;2023-05-10T04:44:26;10.90;97.30
1075;DHT22;526;51.392;12.448;2023-05-10T04:46:51;11.00;97.30
1075;DHT22;526;51.392;12.448;2023-05-10T04:49:17;11.00;97.30
1075;DHT22;526;51.392;12.448;2023-05-10T04:51:43;11.10;97.30
1075;DHT22;526;51.392;12.448;2023-05-10T04:54:08;11.20;97.30
1075;DHT22;526;51.392;12.448;2023-05-10T04:56:34;11.20;97.30
1075;DHT22;526;51.392;12.448;2023-05-10T04:58:59;11.30;97.30
1075;DHT22;526;51.392;12.448;2023-05-10T05:01:25;11.40;97.30
1075;DHT22;526;51.392;12.448;2023-05-10T05:03:50;11.50;97.30
1075;DHT22;526;51.392;12.448;2023-05-10T05:06:18;11.50;97.30
1075;DHT22;526;51.392;12.448;2023-05-10T05:08:43;11.60;97.30
1075;DHT22;526;51.392;12.448;2023-05-10T05:11:09;11.70;97.00
1075;DHT22;526;51.392;12.448;2023-05-10T05:13:34;11.80;97.10
1075;DHT22;526;51.392;12.448;2023-05-10T05:16:01;12.00;96.90
1075;DHT22;526;51.392;12.448;2023-05-10T05:18:27;12.10;97.00
1075;DHT22;526;51.392;12.448;2023-05-10T05:20:53;12.20;96.60
1075;DHT22;526;51.392;12.448;2023-05-10T05:23:18;12.30;96.20
1075;DHT22;526;51.392;12.448;2023-05-10T05:25:46;12.50;96.20
1075;DHT22;526;51.392;12.448;2023-05-10T05:28:11;12.60;95.90
1075;DHT22;526;51.392;12.448;2023-05-10T05:30:37;12.70;95.60
1075;DHT22;526;51.392;12.448;2023-05-10T05:33:03;12.90;95.40
1075;DHT22;526;51.392;12.448;2023-05-10T05:35:29;13.00;95.20
1075;DHT22;526;51.392;12.448;2023-05-10T05:37:54;13.10;94.40
1075;DHT22;526;51.392;12.448;2023-05-10T05:40:21;13.30;94.30
1075;DHT22;526;51.392;12.448;2023-05-10T05:42:46;13.40;93.90
1075;DHT22;526;51.392;12.448;2023-05-10T05:45:12;13.50;93.70
1075;DHT22;526;51.392;12.448;2023-05-10T05:47:40;13.60;93.50
1075;DHT22;526;51.392;12.448;2023-05-10T05:50:06;13.70;93.40
1075;DHT22;526;51.392;12.448;2023-05-10T05:52:31;13.80;92.60
1075;DHT22;526;51.392;12.448;2023-05-10T05:54:57;13.90;92.60
1075;DHT22;526;51.392;12.448;2023-05-10T05:57:23;14.00;91.90
1075;DHT22;526;51.392;12.448;2023-05-10T05:59:49;14.10;92.30
1075;DHT22;526;51.392;12.448;2023-05-10T06:02:15;14.10;92.40
1075;DHT22;526;51.392;12.448;2023-05-10T06:04:40;14.30;92.40
1075;DHT22;526;51.392;12.448;2023-05-10T06:07:06;14.40;92.00
1075;DHT22;526;51.392;12.448;2023-05-10T06:09:31;14.50;92.50
1075;DHT22;526;51.392;12.448;2023-05-10T06:11:56;14.60;92.00
1075;DHT22;526;51.392;12.448;2023-05-10T06:14:23;14.70;92.20
1075;DHT22;526;51.392;12.448;2023-05-10T06:16:48;14.80;92.20
1075;DHT22;526;51.392;12.448;2023-05-10T06:19:14;15.00;92.10
1075;DHT22;526;51.392;12.448;2023-05-10T06:21:39;15.00;91.40
1075;DHT22;526;51.392;12.448;2023-05-10T06:24:05;14.90;91.40
1075;DHT22;526;51.392;12.448;2023-05-10T06:26:32;15.00;92.40
1075;DHT22;526;51.392;12.448;2023-05-10T06:28:57;15.00;91.60
1075;DHT22;526;51.392;12.448;2023-05-10T06:31:23;15.00;91.50
1075;DHT22;526;51.392;12.448;2023-05-10T06:33:48;15.00;91.50
1075;DHT22;526;51.392;12.448;2023-05-10T06:36:14;15.00;91.60
1075;DHT22;526;51.392;12.448;2023-05-10T06:38:40;14.90;92.10
1075;DHT22;526;51.392;12.448;2023-05-10T06:41:05;14.90;92.20
1075;DHT22;526;51.392;12.448;2023-05-10T06:43:31;14.90;92.30
1075;DHT22;526;51.392;12.448;2023-05-10T06:45:57;14.90;92.40
1075;DHT22;526;51.392;12.448;2023-05-10T06:48:22;14.90;92.00
1075;DHT22;526;51.392;12.448;2023-05-10T06:50:48;14.90;92.30
1075;DHT22;526;51.392;12.448;2023-05-10T06:53:13;15.00;92.40
1075;DHT22;526;51.392;12.448;2023-05-10T06:55:39;15.00;92.50
1075;DHT22;526;51.392;12.448;2023-05-10T06:58:05;15.10;92.50
1075;DHT22;526;51.392;12.448;2023-05-10T07:00:31;15.20;92.70
1075;DHT22;526;51.392;12.448;2023-05-10T07:02:56;15.40;92.50
1075;DHT22;526;51.392;12.448;2023-05-10T07:05:22;15.50;92.70
1075;DHT22;526;51.392;12.448;2023-05-10T07:07:47;15.70;92.20
1075;DHT22;526;51.392;12.448;2023-05-10T07:10:13;15.90;91.90
1075;DHT22;526;51.392;12.448;2023-05-10T07:12:39;16.00;90.50
1075;DHT22;526;51.392;12.448;2023-05-10T07:15:05;16.10;90.60
1075;DHT22;526;51.392;12.448;2023-05-10T07:17:31;16.40;90.50
1075;DHT22;526;51.392;12.448;2023-05-10T07:19:56;16.60;88.40
1075;DHT22;526;51.392;12.448;2023-05-10T07:22:21;16.70;88.60
1075;DHT22;526;51.392;12.448;2023-05-10T07:24:47;16.80;88.60
1075;DHT22;526;51.392;12.448;2023-05-10T07:27:12;16.90;87.40
1075;DHT22;526;51.392;12.448;2023-05-10T07:29:38;17.00;88.50
1075;DHT22;526;51.392;12.448;2023-05-10T07:32:04;17.10;86.60
1075;DHT22;526;51.392;12.448;2023-05-10T07:34:30;17.10;88.00
1075;DHT22;526;51.392;12.448;2023-05-10T07:36:58;17.20;88.00
1075;DHT22;526;51.392;12.448;2023-05-10T07:39:24;17.20;86.10
1075;DHT22;526;51.392;12.448;2023-05-10T07:41:50;17.30;87.10
1075;DHT22;526;51.392;12.448;2023-05-10T07:44:15;17.50;87.10
1075;DHT22;526;51.392;12.448;2023-05-10T07:46:43;17.60;86.30
1075;DHT22;526;51.392;12.448;2023-05-10T07:49:09;17.60;85.90
1075;DHT22;526;51.392;12.448;2023-05-10T07:51:34;17.60;86.20
1075;DHT22;526;51.392;12.448;2023-05-10T07:54:00;17.70;86.40
1075;DHT22;526;51.392;12.448;2023-05-10T07:56:27;17.70;86.50
1075;DHT22;526;51.392;12.448;2023-05-10T07:58:55;17.70;87.00
1075;DHT22;526;51.392;12.448;2023-05-10T08:01:22;17.60;86.60
1075;DHT22;526;51.392;12.448;2023-05-10T08:03:48;17.60;87.20
1075;DHT22;526;51.392;12.448;2023-05-10T08:06:14;17.50;87.50
1075;DHT22;526;51.392;12.448;2023-05-10T08:08:40;17.60;87.00
1075;DHT22;526;51.392;12.448;2023-05-10T08:11:06;17.60;87.60
1075;DHT22;526;51.392;12.448;2023-05-10T08:13:32;17.60;87.90
1075;DHT22;526;51.392;12.448;2023-05-10T08:15:57;17.60;87.00
1075;DHT22;526;51.392;12.448;2023-05-10T08:18:23;17.70;88.00
1075;DHT22;526;51.392;12.448;2023-05-10T08:20:48;17.70;87.90
1075;DHT22;526;51.392;12.448;2023-05-10T08:23:14;17.60;88.10
1075;DHT22;526;51.392;12.448;2023-05-10T08:25:39;17.60;88.70
1075;DHT22;526;51.392;12.448;2023-05-10T08:28:08;17.60;88.80
1075;DHT22;526;51.392;12.448;2023-05-10T08:30:39;17.50;88.40
1075;DHT22;526;51.392;12.448;2023-05-10T08:33:08;17.50;88.90
1075;DHT22;526;51.392;12.448;2023-05-10T08:35:38;17.50;89.40
1075;DHT22;526;51.392;12.448;2023-05-10T08:38:11;17.40;89.20
1075;DHT22;526;51.392;12.448;2023-05-10T08:40:39;17.30;89.40
1075;DHT22;526;51.392;12.448;2023-05-10T08:43:11;17.20;89.60
1075;DHT22;526;51.392;12.448;2023-05-10T08:45:38;17.20;90.30
1075;DHT22;526;51.392;12.448;2023-05-10T08:48:10;17.10;90.40
1075;DHT22;526;51.392;12.448;2023-05-10T08:50:40;17.00;91.30
1075;DHT22;526;51.392;12.448;2023-05-10T08:53:09;16.90;91.70
1075;DHT22;526;51.392;12.448;2023-05-10T08:55:36;16.90;92.10
1075;DHT22;526;51.392;12.448;2023-05-10T08:58:04;16.90;92.20
1075;DHT22;526;51.392;12.448;2023-05-10T09:00:30;17.00;92.60
1075;DHT22;526;51.392;12.448;2023-05-10T09:02:57;17.00;92.70
1075;DHT22;526;51.392;12.448;2023-05-10T09:05:23;17.00;92.80
1075;DHT22;526;51.392;12.448;2023-05-10T09:07:48;16.90;92.70
1075;DHT22;526;51.392;12.448;2023-05-10T09:10:14;16.80;93.30
1075;DHT22;526;51.392;12.448;2023-05-10T09:12:40;16.90;93.00
1075;DHT22;526;51.392;12.448;2023-05-10T09:15:07;17.00;93.40
1075;DHT22;526;51.392;12.448;2023-05-10T09:17:34;17.00;93.60
1075;DHT22;526;51.392;12.448;2023-05-10T09:20:01;17.00;93.50
1075;DHT22;526;51.392;12.448;2023-05-10T09:22:27;16.80;93.80
1075;DHT22;526;51.392;12.448;2023-05-10T09:25:12;16.70;94.10
1075;DHT22;526;51.392;12.448;2023-05-10T09:27:44;16.60;94.90
1075;DHT22;526;51.392;12.448;2023-05-10T09:30:14;16.40;95.30
1075;DHT22;526;51.392;12.448;2023-05-10T09:32:41;16.30;96.00
1075;DHT22;526;51.392;12.448;2023-05-10T09:35:12;16.20;95.90
1075;DHT22;526;51.392;12.448;2023-05-10T09:37:44;16.10;96.70
1075;DHT22;526;51.392;12.448;2023-05-10T09:40:14;16.10;97.00
1075;DHT22;526;51.392;12.448;2023-05-10T09:42:42;15.90;97.10
1075;DHT22;526;51.392;12.448;2023-05-10T09:45:15;15.90;97.30
1075;DHT22;526;51.392;12.448;2023-05-10T09:47:40;15.70;97.30
1075;DHT22;526;51.392;12.448;2023-05-10T09:50:06;15.50;97.30
1075;DHT22;526;51.392;12.448;2023-05-10T09:55:21;15.30;97.30
1075;DHT22;526;51.392;12.448;2023-05-10T09:57:58;15.20;97.30
1075;DHT22;526;51.392;12.448;2023-05-10T10:00:38;15.10;97.30
1075;DHT22;526;51.392;12.448;2023-05-10T10:03:13;15.00;97.30
1075;DHT22;526;51.392;12.448;2023-05-10T10:05:45;14.80;97.30
1075;DHT22;526;51.392;12.448;2023-05-10T10:08:14;14.80;97.30
1075;DHT22;526;51.392;12.448;2023-05-10T10:10:43;14.70;97.30
1075;DHT22;526;51.392;12.448;2023-05-10T10:13:19;14.60;97.30
1075;DHT22;526;51.392;12.448;2023-05-10T10:15:44;14.50;97.30
1075;DHT22;526;51.392;12.448;2023-05-10T10:18:15;14.50;97.30
1075;DHT22;526;51.392;12.448;2023-05-10T10:20:41;14.40;97.30
1075;DHT22;526;51.392;12.448;2023-05-10T10:23:08;14.40;97.30
1075;DHT22;526;51.392;12.448;2023-05-10T10:25:33;14.40;97.30
1075;DHT22;526;51.392;12.448;2023-05-10T10:30:51;14.30;97.30
1075;DHT22;526;51.392;12.448;2023-05-10T10:33:47;14.40;97.30
1075;DHT22;526;51.392;12.448;2023-05-10T10:36:16;14.40;97.30
1075;DHT22;526;51.392;12.448;2023-05-10T10:41:30;14.50;97.30
1075;DHT22;526;51.392;12.448;2023-05-10T10:49:30;14.60;97.30
1075;DHT22;526;51.392;12.448;2023-05-10T10:55:08;14.70;97.30
1075;DHT22;526;51.392;12.448;2023-05-10T11:00:28;14.90;97.30
1075;DHT22;526;51.392;12.448;2023-05-10T11:02:57;15.00;97.30
1075;DHT22;526;51.392;12.448;2023-05-10T11:07:59;15.20;97.30
1075;DHT22;526;51.392;12.448;2023-05-10T11:10:26;15.20;97.30
1075;DHT22;526;51.392;12.448;2023-05-10T11:15:31;15.00;97.30
1075;DHT22;526;51.392;12.448;2023-05-10T11:17:57;15.00;97.30
1075;DHT22;526;51.392;12.448;2023-05-10T11:20:22;14.90;97.30
1075;DHT22;526;51.392;12.448;2023-05-10T11:22:51;14.90;97.30
1075;DHT22;526;51.392;12.448;2023-05-10T11:25:17;14.80;97.30
1075;DHT22;526;51.392;12.448;2023-05-10T11:27:43;14.90;97.30
1075;DHT22;526;51.392;12.448;2023-05-10T11:30:12;14.90;97.30
1075;DHT22;526;51.392;12.448;2023-05-10T11:32:39;15.00;97.30
1075;DHT22;526;51.392;12.448;2023-05-10T11:35:08;15.00;97.30
1075;DHT22;526;51.392;12.448;2023-05-10T11:37:34;15.20;97.30
1075;DHT22;526;51.392;12.448;2023-05-10T11:40:00;15.30;97.30
1075;DHT22;526;51.392;12.448;2023-05-10T11:42:28;15.30;97.30
1075;DHT22;526;51.392;12.448;2023-05-10T11:44:54;15.40;97.30
1075;DHT22;526;51.392;12.448;2023-05-10T11:47:20;15.40;97.30
1075;DHT22;526;51.392;12.448;2023-05-10T11:49:46;15.40;97.30
1075;DHT22;526;51.392;12.448;2023-05-10T11:52:12;15.40;97.30
1075;DHT22;526;51.392;12.448;2023-05-10T11:54:37;15.30;97.30
1075;DHT22;526;51.392;12.448;2023-05-10T11:57:03;15.20;97.30
1075;DHT22;526;51.392;12.448;2023-05-10T11:59:29;15.20;97.30
1075;DHT22;526;51.392;12.448;2023-05-10T12:01:55;15.20;97.30
1075;DHT22;526;51.392;12.448;2023-05-10T12:04:20;15.20;97.30
1075;DHT22;526;51.392;12.448;2023-05-10T12:06:46;15.20;97.30
1075;DHT22;526;51.392;12.448;2023-05-10T12:09:12;15.20;97.30
1075;DHT22;526;51.392;12.448;2023-05-10T12:11:39;15.20;97.30
1075;DHT22;526;51.392;12.448;2023-05-10T12:14:05;15.30;97.30
1075;DHT22;526;51.392;12.448;2023-05-10T12:16:32;15.30;97.30
1075;DHT22;526;51.392;12.448;2023-05-10T12:19:00;15.30;97.30
1075;DHT22;526;51.392;12.448;2023-05-10T12:21:28;15.30;97.30
1075;DHT22;526;51.392;12.448;2023-05-10T12:24:03;15.30;97.30
1075;DHT22;526;51.392;12.448;2023-05-10T12:26:30;15.40;97.30
1075;DHT22;526;51.392;12.448;2023-05-10T12:29:15;15.50;97.30
1075;DHT22;526;51.392;12.448;2023-05-10T12:31:58;15.50;97.30
1075;DHT22;526;51.392;12.448;2023-05-10T12:34:30;15.40;97.30
1075;DHT22;526;51.392;12.448;2023-05-10T12:36:56;15.40;97.30
1075;DHT22;526;51.392;12.448;2023-05-10T12:39:21;15.40;97.30
1075;DHT22;526;51.392;12.448;2023-05-10T12:41:47;15.40;97.30
1075;DHT22;526;51.392;12.448;2023-05-10T12:44:12;15.50;97.30
1075;DHT22;526;51.392;12.448;2023-05-10T12:46:38;15.50;97.30
1075;DHT22;526;51.392;12.448;2023-05-10T12:49:03;15.50;97.30
1075;DHT22;526;51.392;12.448;2023-05-10T12:51:29;15.50;97.30
1075;DHT22;526;51.392;12.448;2023-05-10T12:53:55;15.60;97.30
1075;DHT22;526;51.392;12.448;2023-05-10T12:56:21;15.60;97.30
1075;DHT22;526;51.392;12.448;2023-05-10T12:58:46;15.60;97.30
1075;DHT22;526;51.392;12.448;2023-05-10T13:01:13;15.60;97.30
1075;DHT22;526;51.392;12.448;2023-05-10T13:03:39;15.60;97.30
1075;DHT22;526;51.392;12.448;2023-05-10T13:06:05;15.70;97.30
1075;DHT22;526;51.392;12.448;2023-05-10T13:08:31;15.70;97.30
1075;DHT22;526;51.392;12.448;2023-05-10T13:10:59;15.70;97.30
1075;DHT22;526;51.392;12.448;2023-05-10T13:13:25;15.80;97.30
1075;DHT22;526;51.392;12.448;2023-05-10T13:15:51;15.80;97.30
1075;DHT22;526;51.392;12.448;2023-05-10T13:18:17;15.90;97.30
1075;DHT22;526;51.392;12.448;2023-05-10T13:20:42;15.90;97.30
1075;DHT22;526;51.392;12.448;2023-05-10T13:23:09;15.90;97.30
1075;DHT22;526;51.392;12.448;2023-05-10T13:25:35;16.00;97.30
1075;DHT22;526;51.392;12.448;2023-05-10T13:28:01;16.00;97.30
1075;DHT22;526;51.392;12.448;2023-05-10T13:30:26;16.10;97.30
1075;DHT22;526;51.392;12.448;2023-05-10T13:32:52;16.20;97.30
1075;DHT22;526;51.392;12.448;2023-05-10T13:35:18;16.30;97.30
1075;DHT22;526;51.392;12.448;2023-05-10T13:37:43;16.30;97.30
1075;DHT22;526;51.392;12.448;2023-05-10T13:40:09;16.40;97.30
1075;DHT22;526;51.392;12.448;2023-05-10T13:42:35;16.50;97.30
1075;DHT22;526;51.392;12.448;2023-05-10T13:45:01;16.60;97.30
1075;DHT22;526;51.392;12.448;2023-05-10T13:47:27;16.60;97.30
1075;DHT22;526;51.392;12.448;2023-05-10T13:49:52;16.60;97.30
1075;DHT22;526;51.392;12.448;2023-05-10T13:52:18;16.60;97.30
1075;DHT22;526;51.392;12.448;2023-05-10T13:54:44;16.60;97.30
1075;DHT22;526;51.392;12.448;2023-05-10T13:57:09;16.70;97.30
1075;DHT22;526;51.392;12.448;2023-05-10T13:59:37;16.70;97.30
1075;DHT22;526;51.392;12.448;2023-05-10T14:02:02;16.60;97.30
1075;DHT22;526;51.392;12.448;2023-05-10T14:04:28;16.60;97.30
1075;DHT22;526;51.392;12.448;2023-05-10T14:06:54;16.70;97.30
1075;DHT22;526;51.392;12.448;2023-05-10T14:09:20;16.70;97.30
1075;DHT22;526;51.392;12.448;2023-05-10T14:11:45;16.80;97.30
1075;DHT22;526;51.392;12.448;2023-05-10T14:14:11;16.80;97.30
1075;DHT22;526;51.392;12.448;2023-05-10T14:16:38;16.80;97.30
1075;DHT22;526;51.392;12.448;2023-05-10T14:19:03;16.80;97.30
1075;DHT22;526;51.392;12.448;2023-05-10T14:21:29;16.80;97.30
1075;DHT22;526;51.392;12.448;2023-05-10T14:23:57;16.80;97.30
1075;DHT22;526;51.392;12.448;2023-05-10T14:26:22;16.80;97.30
1075;DHT22;526;51.392;12.448;2023-05-10T14:28:48;16.80;97.30
1075;DHT22;526;51.392;12.448;2023-05-10T14:31:13;16.80;97.30
1075;DHT22;526;51.392;12.448;2023-05-10T14:33:40;16.70;97.30
1075;DHT22;526;51.392;12.448;2023-05-10T14:36:06;16.70;97.30
1075;DHT22;526;51.392;12.448;2023-05-10T14:38:31;16.70;97.30
1075;DHT22;526;51.392;12.448;2023-05-10T14:41:00;16.80;97.30
1075;DHT22;526;51.392;12.448;2023-05-10T14:43:29;16.80;97.30
1075;DHT22;526;51.392;12.448;2023-05-10T14:45:55;16.80;97.30
1075;DHT22;526;51.392;12.448;2023-05-10T14:48:21;16.80;97.30
1075;DHT22;526;51.392;12.448;2023-05-10T14:50:46;16.80;97.30
1075;DHT22;526;51.392;12.448;2023-05-10T14:53:12;16.80;97.30
1075;DHT22;526;51.392;12.448;2023-05-10T14:55:38;16.90;97.30
1075;DHT22;526;51.392;12.448;2023-05-10T14:58:04;16.90;97.30
1075;DHT22;526;51.392;12.448;2023-05-10T15:00:30;16.90;97.30
1075;DHT22;526;51.392;12.448;2023-05-10T15:02:56;16.90;97.30
1075;DHT22;526;51.392;12.448;2023-05-10T15:05:22;16.90;97.30
1075;DHT22;526;51.392;12.448;2023-05-10T15:07:47;17.00;97.30
1075;DHT22;526;51.392;12.448;2023-05-10T15:10:13;17.00;97.30
1075;DHT22;526;51.392;12.448;2023-05-10T15:12:39;17.00;97.30
1075;DHT22;526;51.392;12.448;2023-05-10T15:15:05;17.00;97.30
1075;DHT22;526;51.392;12.448;2023-05-10T15:17:31;17.00;97.30
1075;DHT22;526;51.392;12.448;2023-05-10T15:19:57;17.00;97.30
1075;DHT22;526;51.392;12.448;2023-05-10T15:22:22;17.00;97.30
1075;DHT22;526;51.392;12.448;2023-05-10T15:24:48;17.00;97.30
1075;DHT22;526;51.392;12.448;2023-05-10T15:27:13;16.90;97.30
1075;DHT22;526;51.392;12.448;2023-05-10T15:29:39;16.80;97.30
1075;DHT22;526;51.392;12.448;2023-05-10T15:32:04;16.70;97.30
1075;DHT22;526;51.392;12.448;2023-05-10T15:34:30;16.70;97.30
1075;DHT22;526;51.392;12.448;2023-05-10T15:36:56;16.60;97.30
1075;DHT22;526;51.392;12.448;2023-05-10T15:39:22;16.50;97.30
1075;DHT22;526;51.392;12.448;2023-05-10T15:41:47;16.50;97.30
1075;DHT22;526;51.392;12.448;2023-05-10T15:44:13;16.50;97.30
1075;DHT22;526;51.392;12.448;2023-05-10T15:46:38;16.50;97.30
1075;DHT22;526;51.392;12.448;2023-05-10T15:49:04;16.40;97.30
1075;DHT22;526;51.392;12.448;2023-05-10T15:51:31;16.40;97.30
1075;DHT22;526;51.392;12.448;2023-05-10T15:53:58;16.30;97.30
1075;DHT22;526;51.392;12.448;2023-05-10T15:56:23;16.20;97.30
1075;DHT22;526;51.392;12.448;2023-05-10T15:58:49;16.10;97.30
1075;DHT22;526;51.392;12.448;2023-05-10T16:01:14;16.00;97.30
1075;DHT22;526;51.392;12.448;2023-05-10T16:03:40;16.00;97.30
1075;DHT22;526;51.392;12.448;2023-05-10T16:06:07;15.90;97.30
1075;DHT22;526;51.392;12.448;2023-05-10T16:08:32;15.80;97.30
1075;DHT22;526;51.392;12.448;2023-05-10T16:10:59;15.70;97.30
1075;DHT22;526;51.392;12.448;2023-05-10T16:13:24;15.70;97.30
1075;DHT22;526;51.392;12.448;2023-05-10T16:15:50;15.70;97.30
1075;DHT22;526;51.392;12.448;2023-05-10T16:18:16;15.70;97.30
1075;DHT22;526;51.392;12.448;2023-05-10T16:20:42;15.60;97.30
1075;DHT22;526;51.392;12.448;2023-05-10T16:23:08;15.60;97.30
1075;DHT22;526;51.392;12.448;2023-05-10T16:25:34;15.60;97.30
1075;DHT22;526;51.392;12.448;2023-05-10T16:28:00;15.60;97.30
1075;DHT22;526;51.392;12.448;2023-05-10T16:30:26;15.60;97.30
1075;DHT22;526;51.392;12.448;2023-05-10T16:32:57;15.60;97.30
1075;DHT22;526;51.392;12.448;2023-05-10T16:35:23;15.60;97.30
1075;DHT22;526;51.392;12.448;2023-05-10T16:37:49;15.70;97.30
1075;DHT22;526;51.392;12.448;2023-05-10T16:40:15;15.70;97.30